createdAt,value
2018-04-10T00:00:38.622Z,12.70
2018-04-10T00:03:21.674Z,12.70
2018-04-10T00:05:51.124Z,12.60
2018-04-10T00:08:19.933Z,12.60
2018-04-10T00:10:49.705Z,12.50
2018-04-10T00:13:20.218Z,12.60
2018-04-10T00:15:49.701Z,12.50
2018-04-10T00:18:22.204Z,12.50
2018-04-10T00:20:51.707Z,12.50
2018-04-10T00:23:22.161Z,12.50
2018-04-10T00:25:51.616Z,12.50
2018-04-10T00:28:25.261Z,12.40
2018-04-10T00:30:54.757Z,12.40
2018-04-10T00:33:24.626Z,12.30
2018-04-10T00:35:54.110Z,12.30
2018-04-10T00:38:23.560Z,12.30
2018-04-10T00:40:53.025Z,12.30
2018-04-10T00:43:23.461Z,12.30
2018-04-10T00:45:52.929Z,12.20
2018-04-10T00:48:24.752Z,12.20
2018-04-10T00:50:54.225Z,12.30
2018-04-10T00:53:39.830Z,12.20
2018-04-10T00:56:09.280Z,12.10
2018-04-10T00:58:50.213Z,12.20
2018-04-10T01:01:19.658Z,12.10
2018-04-10T01:03:50.160Z,12.10
2018-04-10T01:06:19.365Z,12.00
2018-04-10T01:08:48.854Z,12.10
2018-04-10T01:11:18.309Z,12.10
2018-04-10T01:13:48.212Z,12.10
2018-04-10T01:16:17.681Z,12.10
2018-04-10T01:18:47.130Z,12.10
2018-04-10T01:21:16.385Z,12.00
2018-04-10T01:24:04.161Z,12.00
2018-04-10T01:26:33.635Z,12.00
2018-04-10T01:29:03.101Z,12.00
2018-04-10T01:31:32.549Z,12.00
2018-04-10T01:34:05.856Z,12.00
2018-04-10T01:36:35.313Z,12.00
2018-04-10T01:39:08.494Z,12.20
2018-04-10T01:41:37.986Z,12.20
2018-04-10T01:44:07.863Z,12.20
2018-04-10T01:46:37.093Z,12.20
2018-04-10T01:49:06.596Z,12.20
2018-04-10T01:51:36.067Z,12.20
2018-04-10T01:54:06.540Z,12.20
2018-04-10T01:56:36.020Z,12.20
2018-04-10T01:59:05.896Z,12.30
2018-04-10T02:01:35.365Z,12.30
2018-04-10T02:04:05.250Z,12.10
2018-04-10T02:06:34.708Z,12.20
2018-04-10T02:09:03.696Z,12.00
2018-04-10T02:11:33.259Z,12.00
2018-04-10T02:14:09.928Z,12.00
2018-04-10T02:16:39.548Z,12.00
2018-04-10T02:19:11.384Z,12.00
2018-04-10T02:21:40.592Z,12.10
2018-04-10T02:24:14.408Z,12.10
2018-04-10T02:26:43.898Z,12.10
2018-04-10T02:29:19.359Z,12.00
2018-04-10T02:31:48.850Z,12.00
2018-04-10T02:34:18.296Z,12.00
2018-04-10T02:36:47.772Z,12.00
2018-04-10T02:39:22.926Z,12.00
2018-04-10T02:41:52.133Z,12.00
2018-04-10T02:44:21.619Z,11.90
2018-04-10T02:46:51.081Z,11.90
2018-04-10T02:49:20.586Z,11.80
2018-04-10T02:51:50.040Z,11.80
2018-04-10T02:54:19.945Z,11.80
2018-04-10T02:56:49.428Z,11.80
2018-04-10T02:59:19.984Z,11.60
2018-04-10T03:01:49.440Z,11.70
2018-04-10T03:04:18.903Z,11.60
2018-04-10T03:06:48.378Z,11.70
2018-04-10T03:09:19.844Z,11.60
2018-04-10T03:11:49.444Z,11.60
2018-04-10T03:14:19.880Z,11.60
2018-04-10T03:16:49.073Z,11.60
2018-04-10T03:19:26.052Z,11.60
2018-04-10T03:21:55.897Z,11.50
2018-04-10T03:24:26.350Z,11.50
2018-04-10T03:26:55.804Z,11.40
2018-04-10T03:29:25.072Z,11.40
2018-04-10T03:31:54.589Z,11.40
2018-04-10T03:34:24.227Z,11.40
2018-04-10T03:36:53.686Z,11.40
2018-04-10T03:39:22.912Z,11.50
2018-04-10T03:41:52.360Z,11.40
2018-04-10T03:44:31.156Z,11.50
2018-04-10T03:47:00.650Z,11.50
2018-04-10T03:49:33.669Z,11.60
2018-04-10T03:52:03.166Z,11.50
2018-04-10T03:54:32.605Z,11.50
2018-04-10T03:57:03.025Z,11.50
2018-04-10T03:59:32.509Z,11.40
2018-04-10T04:02:09.622Z,11.40
2018-04-10T04:04:39.094Z,11.30
2018-04-10T04:07:09.528Z,11.30
2018-04-10T04:09:39.014Z,11.30
2018-04-10T04:12:16.076Z,11.30
2018-04-10T04:14:45.960Z,11.30
2018-04-10T04:17:28.553Z,11.30
2018-04-10T04:20:14.222Z,11.40
2018-04-10T04:22:43.417Z,11.30
2018-04-10T04:25:20.940Z,11.40
2018-04-10T04:27:50.814Z,11.30
2018-04-10T04:30:20.284Z,11.30
2018-04-10T04:32:50.170Z,11.20
2018-04-10T04:35:19.640Z,11.30
2018-04-10T04:37:49.686Z,11.10
2018-04-10T04:40:19.176Z,11.10
2018-04-10T04:42:55.525Z,11.10
2018-04-10T04:45:24.765Z,11.00
2018-04-10T04:47:54.239Z,11.00
2018-04-10T04:50:23.716Z,10.90
2018-04-10T04:52:56.900Z,10.90
2018-04-10T04:55:26.348Z,10.80
2018-04-10T04:57:59.712Z,10.90
2018-04-10T05:00:29.165Z,10.90
2018-04-10T05:02:58.644Z,10.90
2018-04-10T05:05:28.125Z,10.80
2018-04-10T05:07:58.005Z,10.80
2018-04-10T05:10:37.488Z,10.80
2018-04-10T05:13:07.368Z,10.70
2018-04-10T05:15:40.058Z,10.70
2018-04-10T05:18:09.572Z,10.70
2018-04-10T05:20:51.138Z,10.70
2018-04-10T05:23:20.617Z,10.70
2018-04-10T05:25:52.087Z,10.80
2018-04-10T05:28:21.561Z,10.80
2018-04-10T05:31:01.213Z,10.80
2018-04-10T05:33:31.080Z,10.80
2018-04-10T05:36:04.257Z,10.80
2018-04-10T05:38:33.717Z,10.80
2018-04-10T05:41:04.163Z,10.90
2018-04-10T05:43:33.625Z,10.90
2018-04-10T05:46:06.638Z,11.00
2018-04-10T05:48:36.128Z,11.00
2018-04-10T05:51:05.281Z,11.00
2018-04-10T05:53:34.748Z,11.10
2018-04-10T05:56:26.425Z,11.20
2018-04-10T05:58:55.903Z,11.20
2018-04-10T06:01:30.639Z,11.30
2018-04-10T06:04:00.139Z,11.30
2018-04-10T06:06:33.147Z,11.40
2018-04-10T06:09:02.612Z,11.50
2018-04-10T06:11:32.560Z,11.60
2018-04-10T06:14:01.761Z,11.60
2018-04-10T06:16:31.621Z,11.70
2018-04-10T06:19:01.096Z,11.60
2018-04-10T06:24:30.902Z,11.80
2018-04-10T06:27:00.463Z,12.00
2018-04-10T06:29:40.130Z,12.00
2018-04-10T06:32:10.276Z,12.00
2018-04-10T06:34:40.865Z,12.00
2018-04-10T06:37:10.317Z,12.10
2018-04-10T06:39:41.105Z,12.20
2018-04-10T06:42:10.284Z,12.20
2018-04-10T06:44:43.239Z,12.30
2018-04-10T06:47:12.741Z,12.30
2018-04-10T06:49:43.682Z,12.40
2018-04-10T06:52:13.551Z,12.60
2018-04-10T06:54:43.011Z,12.60
2018-04-10T06:57:12.898Z,12.70
2018-04-10T06:59:45.792Z,12.70
2018-04-10T07:02:15.110Z,12.90
2018-04-10T07:04:44.557Z,12.80
2018-04-10T07:07:14.041Z,13.00
2018-04-10T07:09:43.553Z,13.10
2018-04-10T07:12:13.013Z,13.20
2018-04-10T07:14:44.145Z,13.30
2018-04-10T07:17:13.607Z,13.40
2018-04-10T07:19:43.110Z,13.60
2018-04-10T07:22:12.585Z,13.60
2018-04-10T07:24:46.531Z,13.80
2018-04-10T07:27:16.633Z,13.90
2018-04-10T07:29:55.929Z,14.10
2018-04-10T07:32:25.431Z,14.20
2018-04-10T07:35:03.407Z,14.20
2018-04-10T07:37:33.309Z,14.60
2018-04-10T07:40:02.816Z,14.60
2018-04-10T07:42:33.077Z,14.70
2018-04-10T07:45:15.442Z,14.80
2018-04-10T07:47:44.927Z,15.00
2018-04-10T07:50:14.813Z,15.20
2018-04-10T07:52:44.272Z,15.20
2018-04-10T07:55:13.933Z,15.40
2018-04-10T07:57:43.413Z,15.40
2018-04-10T08:00:13.300Z,15.60
2018-04-10T08:02:42.763Z,15.50
2018-04-10T08:05:13.620Z,15.90
2018-04-10T08:07:43.480Z,16.00
2018-04-10T08:10:20.752Z,16.00
2018-04-10T08:12:50.632Z,16.10
2018-04-10T08:15:21.104Z,16.10
2018-04-10T08:17:50.565Z,16.20
2018-04-10T08:20:23.074Z,16.20
2018-04-10T08:22:52.586Z,16.30
2018-04-10T08:25:22.043Z,16.40
2018-04-10T08:27:51.718Z,16.40
2018-04-10T08:30:21.187Z,16.50
2018-04-10T08:32:50.697Z,16.60
2018-04-10T08:35:23.291Z,16.70
2018-04-10T08:37:56.593Z,16.70
2018-04-10T08:40:26.272Z,16.80
2018-04-10T08:42:56.189Z,16.90
2018-04-10T08:45:25.447Z,17.00
2018-04-10T08:47:54.885Z,17.00
2018-04-10T08:50:24.616Z,17.20
2018-04-10T08:52:54.065Z,17.20
2018-04-10T08:55:25.513Z,17.20
2018-04-10T08:57:54.969Z,17.20
2018-04-10T09:00:24.598Z,17.30
2018-04-10T09:02:54.515Z,17.50
2018-04-10T09:05:24.362Z,17.50
2018-04-10T09:07:53.833Z,17.50
2018-04-10T09:10:26.425Z,17.70
2018-04-10T09:12:55.878Z,17.80
2018-04-10T09:15:25.743Z,17.90
2018-04-10T09:17:55.227Z,17.90
2018-04-10T09:20:24.682Z,18.00
2018-04-10T09:22:54.140Z,18.00
2018-04-10T09:25:23.810Z,18.00
2018-04-10T09:27:54.240Z,17.90
2018-04-10T09:30:24.080Z,17.90
2018-04-10T09:32:54.149Z,17.90
2018-04-10T09:35:23.367Z,17.80
2018-04-10T09:37:52.830Z,17.90
2018-04-10T09:40:22.303Z,17.80
2018-04-10T09:42:51.780Z,17.80
2018-04-10T09:45:21.612Z,17.90
2018-04-10T09:47:51.528Z,17.90
2018-04-10T09:50:20.980Z,17.80
2018-04-10T09:52:50.432Z,17.90
2018-04-10T09:55:19.881Z,18.00
2018-04-10T09:57:50.604Z,18.00
2018-04-10T10:00:25.408Z,18.10
2018-04-10T10:02:55.898Z,18.20
2018-04-10T10:05:25.652Z,18.30
2018-04-10T10:07:55.177Z,18.30
2018-04-10T10:10:27.636Z,18.30
2018-04-10T10:12:57.188Z,18.30
2018-04-10T10:15:26.975Z,18.30
2018-04-10T10:17:56.552Z,18.20
2018-04-10T10:20:26.390Z,18.20
2018-04-10T10:22:55.964Z,18.20
2018-04-10T10:25:28.944Z,18.20
2018-04-10T10:27:58.409Z,18.30
2018-04-10T10:30:27.970Z,18.20
2018-04-10T10:32:57.434Z,18.20
2018-04-10T10:35:27.056Z,18.10
2018-04-10T10:37:56.532Z,18.10
2018-04-10T10:40:25.986Z,18.10
2018-04-10T10:42:55.457Z,18.10
2018-04-10T10:45:29.173Z,18.10
2018-04-10T10:47:59.030Z,18.10
2018-04-10T10:50:30.401Z,18.10
2018-04-10T10:52:59.853Z,18.10
2018-04-10T10:55:29.328Z,18.30
2018-04-10T10:57:58.760Z,18.20
2018-04-10T11:00:28.243Z,18.20
2018-04-10T11:02:57.688Z,18.30
2018-04-10T11:05:27.146Z,18.30
2018-04-10T11:07:56.606Z,18.30
2018-04-10T11:10:26.151Z,18.40
2018-04-10T11:13:00.021Z,18.50
2018-04-10T11:15:29.257Z,18.50
2018-04-10T11:18:03.043Z,18.60
2018-04-10T11:23:12.220Z,19.00
2018-04-10T11:25:43.045Z,18.90
2018-04-10T11:28:13.360Z,19.00
2018-04-10T11:30:43.316Z,19.10
2018-04-10T11:33:14.119Z,19.30
2018-04-10T11:35:44.566Z,19.50
2018-04-10T11:38:19.995Z,19.60
2018-04-10T11:40:50.270Z,19.70
2018-04-10T11:43:19.596Z,19.70
2018-04-10T11:45:52.927Z,19.80
2018-04-10T11:48:22.579Z,19.80
2018-04-10T11:50:52.285Z,20.10
2018-04-10T11:53:22.430Z,20.10
2018-04-10T11:55:52.249Z,20.30
2018-04-10T11:58:22.846Z,20.50
2018-04-10T12:00:53.215Z,20.40
2018-04-10T12:03:23.113Z,20.30
2018-04-10T12:05:52.720Z,20.30
2018-04-10T12:08:22.675Z,20.60
2018-04-10T12:10:52.411Z,20.70
2018-04-10T12:13:22.069Z,20.90
2018-04-10T12:15:51.715Z,21.00
2018-04-10T12:18:23.492Z,21.20
2018-04-10T12:20:53.091Z,21.40
2018-04-10T12:23:22.830Z,21.50
2018-04-10T12:25:52.356Z,21.40
2018-04-10T12:28:22.032Z,21.20
2018-04-10T12:30:51.725Z,21.10
2018-04-10T12:33:21.286Z,21.20
2018-04-10T12:35:50.878Z,21.30
2018-04-10T12:38:20.199Z,21.50
2018-04-10T12:40:50.061Z,21.50
2018-04-10T12:43:19.670Z,21.70
2018-04-10T12:45:49.364Z,21.90
2018-04-10T12:48:18.756Z,21.90
2018-04-10T12:50:48.536Z,21.80
2018-04-10T12:53:17.920Z,21.90
2018-04-10T12:55:47.538Z,22.10
2018-04-10T12:58:17.066Z,22.00
2018-04-10T13:00:46.625Z,21.90
2018-04-10T13:03:16.440Z,21.80
2018-04-10T13:05:46.100Z,21.70
2018-04-10T13:08:15.750Z,21.90
2018-04-10T13:10:46.336Z,21.90
2018-04-10T13:13:15.891Z,21.90
2018-04-10T13:15:45.184Z,21.90
2018-04-10T13:18:14.608Z,22.00
2018-04-10T13:20:44.237Z,22.00
2018-04-10T13:23:27.628Z,22.20
2018-04-10T13:26:01.131Z,22.30
2018-04-10T13:28:33.011Z,22.50
2018-04-10T13:31:02.751Z,22.90
2018-04-10T13:33:33.944Z,23.40
2018-04-10T13:36:06.431Z,23.70
2018-04-10T13:38:40.479Z,24.10
2018-04-10T13:41:09.947Z,24.30
2018-04-10T13:46:16.874Z,24.60
2018-04-10T13:48:53.253Z,24.80
2018-04-10T13:51:26.624Z,24.90
2018-04-10T13:54:01.123Z,25.00
2018-04-10T13:56:37.531Z,25.20
2018-04-10T13:59:07.854Z,25.20
2018-04-10T14:01:40.335Z,25.20
2018-04-10T14:04:11.994Z,25.00
2018-04-10T14:06:50.724Z,24.60
2018-04-10T14:14:51.734Z,23.00
2018-04-10T14:17:23.928Z,23.10
2018-04-10T14:19:57.997Z,23.20
2018-04-10T14:31:57.527Z,22.30
2018-04-10T14:34:27.160Z,22.00
2018-04-10T14:37:00.935Z,22.00
2018-04-10T14:42:14.732Z,22.40
2018-04-10T14:44:50.892Z,22.40
2018-04-10T14:47:20.775Z,22.30
2018-04-10T14:49:59.992Z,22.30
2018-04-10T14:52:30.021Z,22.30
2018-04-10T14:55:01.201Z,22.50
2018-04-10T14:57:30.470Z,22.50
2018-04-10T14:59:59.759Z,22.50
2018-04-10T15:02:29.048Z,22.50
2018-04-10T15:05:00.453Z,22.40
2018-04-10T15:07:29.937Z,22.10
2018-04-10T15:10:00.116Z,22.10
2018-04-10T15:12:29.301Z,22.10
2018-04-10T15:15:06.339Z,22.10
2018-04-10T15:17:36.221Z,22.00
2018-04-10T15:20:06.665Z,21.90
2018-04-10T15:22:35.911Z,21.80
2018-04-10T15:25:10.551Z,21.70
2018-04-10T15:27:39.799Z,21.60
2018-04-10T15:30:15.218Z,21.40
2018-04-10T15:32:46.619Z,21.40
2018-04-10T15:35:16.290Z,21.40
2018-04-10T15:37:46.847Z,21.40
2018-04-10T15:40:16.452Z,21.40
2018-04-10T15:42:46.877Z,21.40
2018-04-10T15:45:16.351Z,21.50
2018-04-10T15:48:08.129Z,21.70
2018-04-10T15:53:22.639Z,21.80
2018-04-10T15:55:53.593Z,21.70
2018-04-10T15:58:34.291Z,21.60
2018-04-10T16:04:19.183Z,21.20
2018-04-10T16:07:04.923Z,21.10
2018-04-10T16:09:35.540Z,21.10
2018-04-10T16:12:05.429Z,21.30
2018-04-10T16:14:36.709Z,21.40
2018-04-10T16:17:12.474Z,21.20
2018-04-10T16:19:45.385Z,21.30
2018-04-10T16:22:17.260Z,21.40
2018-04-10T16:24:53.197Z,21.40
2018-04-10T16:27:23.833Z,21.30
2018-04-10T16:29:54.425Z,21.20
2018-04-10T16:32:24.048Z,21.20
2018-04-10T16:34:53.842Z,21.10
2018-04-10T16:37:23.586Z,20.90
2018-04-10T16:39:53.272Z,20.80
2018-04-10T16:42:24.993Z,20.70
2018-04-10T16:44:58.418Z,20.60
2018-04-10T16:47:28.171Z,20.50
2018-04-10T16:50:05.266Z,20.20
2018-04-10T16:52:35.892Z,20.20
2018-04-10T16:55:07.753Z,20.20
2018-04-10T16:57:37.534Z,20.20
2018-04-10T17:00:07.108Z,20.30
2018-04-10T17:02:37.505Z,20.40
2018-04-10T17:05:10.360Z,20.30
2018-04-10T17:07:43.892Z,20.00
2018-04-10T17:10:17.012Z,20.10
2018-04-10T17:12:49.743Z,19.80
2018-04-10T17:15:24.330Z,19.50
2018-04-10T17:17:55.261Z,19.30
2018-04-10T17:20:36.091Z,19.00
2018-04-10T17:23:52.736Z,18.80
2018-04-10T17:28:58.714Z,18.30
2018-04-10T17:31:28.297Z,18.10
2018-04-10T17:33:59.009Z,18.00
2018-04-10T17:36:34.637Z,17.90
2018-04-10T17:39:03.768Z,17.80
2018-04-10T17:41:33.761Z,17.70
2018-04-10T17:44:04.115Z,17.70
2018-04-10T17:46:39.214Z,17.70
2018-04-10T17:49:10.328Z,17.70
2018-04-10T17:51:40.733Z,17.90
2018-04-10T17:54:16.336Z,18.00
2018-04-10T17:56:46.424Z,17.90
2018-04-10T17:59:16.041Z,17.90
2018-04-10T18:01:47.558Z,17.70
2018-04-10T18:04:18.586Z,17.80
2018-04-10T18:06:49.034Z,17.50
2018-04-10T18:09:22.555Z,17.40
2018-04-10T18:11:53.420Z,17.40
2018-04-10T18:19:46.941Z,17.10
2018-04-10T18:22:16.799Z,17.00
2018-04-10T18:24:46.663Z,17.10
2018-04-10T18:27:16.518Z,17.00
2018-04-10T18:32:23.304Z,17.00
2018-04-10T18:34:53.656Z,17.00
2018-04-10T18:37:23.394Z,17.00
2018-04-10T18:39:53.827Z,17.00
2018-04-10T18:45:04.069Z,16.70
2018-04-10T18:50:52.856Z,16.30
2018-04-10T18:53:24.427Z,16.20
2018-04-10T19:00:08.529Z,15.80
2018-04-10T19:02:40.218Z,15.60
2018-04-10T19:05:10.957Z,15.80
2018-04-10T19:10:18.285Z,16.30
2018-04-10T19:12:48.157Z,16.20
2018-04-10T19:15:31.992Z,16.00
2018-04-10T19:18:02.665Z,15.80
2018-04-10T19:20:33.864Z,15.80
2018-04-10T19:23:04.776Z,15.50
2018-04-10T19:25:49.326Z,15.20
2018-04-10T19:28:19.478Z,15.10
2018-04-10T19:30:49.508Z,15.00
2018-04-10T19:33:37.043Z,14.80
2018-04-10T19:36:07.381Z,14.90
2018-04-10T19:38:41.275Z,14.70
2018-04-10T19:41:11.057Z,14.80
2018-04-10T19:43:41.599Z,14.50
2018-04-10T19:46:11.081Z,14.50
2018-04-10T19:48:45.714Z,14.50
2018-04-10T19:51:16.232Z,14.30
2018-04-10T19:53:46.212Z,14.30
2018-04-10T19:56:16.010Z,14.40
2018-04-10T19:58:46.555Z,14.40
2018-04-10T20:01:16.636Z,14.70
2018-04-10T20:03:56.228Z,14.80
2018-04-10T20:06:28.088Z,14.80
2018-04-10T20:11:41.846Z,14.80
2018-04-10T20:14:18.364Z,14.90
2018-04-10T20:16:52.164Z,14.80
2018-04-10T20:19:22.040Z,14.80
2018-04-10T20:21:53.804Z,14.60
2018-04-10T20:24:24.428Z,14.60
2018-04-10T20:26:54.086Z,14.60
2018-04-10T20:29:25.329Z,14.70
2018-04-10T20:32:00.633Z,14.50
2018-04-10T20:34:31.408Z,14.30
2018-04-10T20:37:00.850Z,14.20
2018-04-10T20:39:30.528Z,14.20
2018-04-10T20:42:01.337Z,14.20
2018-04-10T20:44:30.984Z,14.20
2018-04-10T20:47:01.260Z,14.20
2018-04-10T20:54:58.383Z,14.30
2018-04-10T20:57:28.076Z,14.50
2018-04-10T20:59:58.533Z,14.60
2018-04-10T21:02:29.642Z,14.70
2018-04-10T21:05:00.862Z,14.60
2018-04-10T21:07:33.065Z,14.60
2018-04-10T21:10:02.599Z,14.40
2018-04-10T21:12:35.144Z,14.30
2018-04-10T21:15:04.137Z,14.30
2018-04-10T21:20:45.845Z,14.20
2018-04-10T21:29:25.163Z,14.20
2018-04-10T21:31:55.039Z,14.10
2018-04-10T21:34:24.530Z,14.20
2018-04-10T21:36:53.795Z,14.10
2018-04-10T21:39:23.305Z,14.20
2018-04-10T21:41:52.489Z,14.10
2018-04-10T21:44:22.108Z,14.00
2018-04-10T21:46:51.815Z,14.00
2018-04-10T21:49:21.506Z,13.70
2018-04-10T21:51:51.166Z,13.70
2018-04-10T21:54:20.710Z,13.70
2018-04-10T21:56:50.028Z,13.60
2018-04-10T21:59:20.480Z,13.20
2018-04-10T22:01:50.012Z,13.30
2018-04-10T22:04:19.261Z,13.10
2018-04-10T22:06:48.820Z,13.10
2018-04-10T22:09:18.863Z,13.00
2018-04-10T22:11:48.437Z,13.10
2018-04-10T22:14:17.952Z,13.00
2018-04-10T22:16:48.159Z,13.30
2018-04-10T22:19:17.738Z,13.30
2018-04-10T22:21:47.727Z,13.40
2018-04-10T22:24:17.372Z,13.40
2018-04-10T22:26:47.051Z,13.50
2018-04-10T22:29:16.596Z,13.30
2018-04-10T22:31:46.142Z,13.20
2018-04-10T22:34:15.710Z,13.10
2018-04-10T22:36:45.248Z,12.90
2018-04-10T22:39:14.575Z,12.80
2018-04-10T22:41:44.321Z,12.90
2018-04-10T22:44:13.855Z,13.00
2018-04-10T22:46:43.422Z,13.10
2018-04-10T22:49:12.679Z,13.10
2018-04-10T22:51:42.424Z,13.00
2018-04-10T22:54:11.836Z,13.00
2018-04-10T22:56:41.199Z,12.90
2018-04-10T22:59:10.956Z,12.70
2018-04-10T23:01:40.458Z,12.70
2018-04-10T23:04:09.977Z,12.80
2018-04-10T23:06:39.280Z,12.80
2018-04-10T23:09:08.820Z,12.80
2018-04-10T23:11:38.229Z,12.90
2018-04-10T23:14:07.827Z,12.80
2018-04-10T23:16:37.361Z,12.80
2018-04-10T23:19:07.392Z,12.60
2018-04-10T23:21:37.397Z,12.60
2018-04-10T23:24:07.049Z,12.60
2018-04-10T23:26:36.440Z,12.50
2018-04-10T23:29:06.101Z,12.50
2018-04-10T23:31:35.589Z,12.50
2018-04-10T23:34:04.894Z,12.50
2018-04-10T23:36:34.269Z,12.50
2018-04-10T23:39:03.658Z,12.40
2018-04-10T23:41:32.708Z,12.40
2018-04-10T23:44:02.104Z,12.40
2018-04-10T23:46:31.644Z,12.40
2018-04-10T23:49:01.169Z,12.40
2018-04-10T23:51:31.154Z,12.20
2018-04-10T23:54:00.769Z,12.30
2018-04-10T23:56:30.309Z,12.10
2018-04-10T23:58:59.861Z,12.10
